createdAt,value
2022-08-22T00:00:44.482Z,0
2022-08-22T00:01:47.787Z,0
2022-08-22T00:03:02.383Z,0
2022-08-22T00:03:08.057Z,0
2022-08-22T00:04:57.705Z,0
2022-08-22T00:06:00.428Z,0
2022-08-22T00:07:03.341Z,0
2022-08-22T00:08:38.185Z,0
2022-08-22T00:09:41.287Z,0
2022-08-22T00:10:53.360Z,0
2022-08-22T00:12:27.870Z,0
2022-08-22T00:13:30.668Z,0
2022-08-22T00:14:33.283Z,0
2022-08-22T00:16:11.697Z,0
2022-08-22T00:17:15.962Z,0
2022-08-22T00:18:22.504Z,0
2022-08-22T00:19:56.970Z,0
2022-08-22T00:20:59.813Z,0
2022-08-22T00:22:05.606Z,0
2022-08-22T00:23:40.150Z,0
2022-08-22T00:24:42.738Z,0
2022-08-22T00:25:54.244Z,0
2022-08-22T00:27:28.758Z,0
2022-08-22T00:28:31.433Z,0
2022-08-22T00:29:34.367Z,0
2022-08-22T00:31:10.515Z,0
2022-08-22T00:32:15.879Z,0
2022-08-22T00:33:18.917Z,0
2022-08-22T00:34:54.648Z,0
2022-08-22T00:36:02.042Z,0
2022-08-22T00:37:10.471Z,0
2022-08-22T00:38:44.886Z,0
2022-08-22T00:39:47.900Z,0
2022-08-22T00:40:50.859Z,0
2022-08-22T00:42:37.855Z,0
2022-08-22T00:43:40.690Z,0
2022-08-22T00:44:43.579Z,0
2022-08-22T00:46:20.434Z,0
2022-08-22T00:47:24.581Z,0
2022-08-22T00:48:33.653Z,0
2022-08-22T00:50:08.660Z,0
2022-08-22T00:51:11.418Z,0
2022-08-22T00:52:14.148Z,0
2022-08-22T00:53:49.071Z,0
2022-08-22T00:54:52.016Z,0
2022-08-22T00:56:02.985Z,0
2022-08-22T00:57:37.508Z,0
2022-08-22T00:58:40.461Z,0
2022-08-22T00:59:52.369Z,0
2022-08-22T01:00:42.329Z,0
2022-08-22T01:01:45.673Z,0
2022-08-22T01:02:52.433Z,0
2022-08-22T01:04:27.636Z,0
2022-08-22T01:05:30.551Z,0
2022-08-22T01:06:34.595Z,0
2022-08-22T01:08:09.582Z,0
2022-08-22T01:09:14.556Z,0
2022-08-22T01:10:17.299Z,0
2022-08-22T01:11:52.009Z,0
2022-08-22T01:12:54.719Z,0
2022-08-22T01:13:57.694Z,0
2022-08-22T01:15:43.621Z,0
2022-08-22T01:16:46.538Z,0
2022-08-22T01:17:49.575Z,0
2022-08-22T01:19:24.266Z,0
2022-08-22T01:20:27.167Z,0
2022-08-22T01:21:35.563Z,0
2022-08-22T01:23:10.125Z,0
2022-08-22T01:24:12.864Z,0
2022-08-22T01:25:21.896Z,0
2022-08-22T01:27:09.046Z,0
2022-08-22T01:28:14.597Z,0
2022-08-22T01:29:28.367Z,0
2022-08-22T01:31:04.825Z,0
2022-08-22T01:32:07.551Z,0
2022-08-22T01:33:14.130Z,0
2022-08-22T01:34:48.739Z,0
2022-08-22T01:35:51.564Z,0
2022-08-22T01:36:55.279Z,0
2022-08-22T01:38:30.030Z,0
2022-08-22T01:39:32.894Z,0
2022-08-22T01:40:53.404Z,0
2022-08-22T01:42:32.132Z,0
2022-08-22T01:44:11.502Z,0
2022-08-22T01:45:14.299Z,0
2022-08-22T01:46:49.825Z,0
2022-08-22T01:48:05.116Z,0
2022-08-22T01:49:10.082Z,0
2022-08-22T01:50:44.996Z,0
2022-08-22T01:51:47.985Z,0
2022-08-22T01:52:50.821Z,0
2022-08-22T01:54:25.503Z,0
2022-08-22T01:55:28.137Z,0
2022-08-22T01:56:30.853Z,0
2022-08-22T01:58:06.475Z,0
2022-08-22T01:59:17.632Z,0
2022-08-22T02:00:52.718Z,0
2022-08-22T02:01:55.788Z,0
2022-08-22T02:02:58.973Z,0
2022-08-22T02:04:33.554Z,0
2022-08-22T02:05:36.255Z,0
2022-08-22T02:06:42.733Z,0
2022-08-22T02:08:17.574Z,0
2022-08-22T02:09:20.371Z,0
2022-08-22T02:10:23.170Z,0
2022-08-22T02:11:59.147Z,0
2022-08-22T02:13:02.017Z,0
2022-08-22T02:14:05.032Z,0
2022-08-22T02:15:39.529Z,0
2022-08-22T02:16:42.330Z,0
2022-08-22T02:17:45.353Z,0
2022-08-22T02:19:20.297Z,0
2022-08-22T02:20:26.099Z,0
2022-08-22T02:21:29.050Z,0
2022-08-22T02:23:12.581Z,0
2022-08-22T02:24:18.499Z,0
2022-08-22T02:25:26.089Z,0
2022-08-22T02:27:00.708Z,0
2022-08-22T02:28:03.887Z,0
2022-08-22T02:29:20.499Z,0
2022-08-22T02:30:55.271Z,0
2022-08-22T02:31:58.141Z,0
2022-08-22T02:33:00.875Z,0
2022-08-22T02:34:37.582Z,0
2022-08-22T02:35:40.431Z,0
2022-08-22T02:36:43.180Z,0
2022-08-22T02:38:17.885Z,0
2022-08-22T02:39:20.841Z,0
2022-08-22T02:40:26.625Z,0
2022-08-22T02:42:01.656Z,0
2022-08-22T02:43:06.286Z,0
2022-08-22T02:44:12.160Z,0
2022-08-22T02:45:47.329Z,0
2022-08-22T02:46:50.037Z,0
2022-08-22T02:47:52.976Z,0
2022-08-22T02:49:33.182Z,0
2022-08-22T02:50:42.440Z,0
2022-08-22T02:51:45.302Z,0
2022-08-22T02:53:22.020Z,0
2022-08-22T02:54:25.529Z,0
2022-08-22T02:55:28.420Z,0
2022-08-22T02:57:03.753Z,0
2022-08-22T02:58:10.017Z,0
2022-08-22T02:59:16.904Z,0
2022-08-22T03:01:01.541Z,0
2022-08-22T03:02:04.375Z,0
2022-08-22T03:03:07.232Z,0
2022-08-22T03:04:41.967Z,0
2022-08-22T03:05:44.953Z,0
2022-08-22T03:06:50.099Z,0
2022-08-22T03:08:35.563Z,0
2022-08-22T03:09:38.504Z,0
2022-08-22T03:10:41.483Z,0
2022-08-22T03:12:16.336Z,0
2022-08-22T03:13:25.761Z,0
2022-08-22T03:14:28.721Z,0
2022-08-22T03:16:11.680Z,0
2022-08-22T03:17:14.601Z,0
2022-08-22T03:18:18.044Z,0
2022-08-22T03:19:52.556Z,0
2022-08-22T03:20:55.521Z,0
2022-08-22T03:21:58.495Z,0
2022-08-22T03:23:33.238Z,0
2022-08-22T03:24:36.107Z,0
2022-08-22T03:25:38.871Z,0
2022-08-22T03:27:32.249Z,0
2022-08-22T03:28:35.874Z,0
2022-08-22T03:29:38.758Z,0
2022-08-22T03:31:13.561Z,0
2022-08-22T03:32:16.383Z,0
2022-08-22T03:33:19.106Z,0
2022-08-22T03:34:53.856Z,0
2022-08-22T03:35:56.887Z,0
2022-08-22T03:37:00.372Z,0
2022-08-22T03:38:34.810Z,0
2022-08-22T03:39:45.543Z,0
2022-08-22T03:40:54.447Z,0
2022-08-22T03:42:29.124Z,0
2022-08-22T03:43:31.784Z,0
2022-08-22T03:44:34.576Z,0
2022-08-22T03:46:10.181Z,0
2022-08-22T03:47:13.101Z,0
2022-08-22T03:48:16.045Z,0
2022-08-22T03:49:51.598Z,0
2022-08-22T03:50:54.658Z,0
2022-08-22T03:51:57.786Z,0
2022-08-22T03:53:41.385Z,0
2022-08-22T03:54:47.420Z,0
2022-08-22T03:55:51.450Z,0
2022-08-22T03:57:28.806Z,0
2022-08-22T03:58:50.157Z,0
2022-08-22T03:59:59.720Z,0
2022-08-22T04:00:40.572Z,0
2022-08-22T04:01:43.665Z,0
2022-08-22T04:03:12.142Z,0
2022-08-22T04:04:51.102Z,0
2022-08-22T04:06:18.648Z,0
2022-08-22T04:07:48.350Z,0
2022-08-22T04:09:01.729Z,0
2022-08-22T04:10:39.900Z,0
2022-08-22T04:11:42.859Z,0
2022-08-22T04:12:45.836Z,0
2022-08-22T04:14:21.410Z,0
2022-08-22T04:15:24.457Z,0
2022-08-22T04:16:27.312Z,0
2022-08-22T04:18:03.791Z,0
2022-08-22T04:19:08.924Z,0
2022-08-22T04:20:12.032Z,0
2022-08-22T04:21:51.300Z,0
2022-08-22T04:22:54.244Z,0
2022-08-22T04:23:58.303Z,0
2022-08-22T04:25:36.565Z,0
2022-08-22T04:26:41.004Z,0
2022-08-22T04:27:44.875Z,0
2022-08-22T04:29:19.867Z,0
2022-08-22T04:30:22.707Z,0
2022-08-22T04:31:25.712Z,0
2022-08-22T04:33:00.534Z,0
2022-08-22T04:34:03.592Z,0
2022-08-22T04:35:06.706Z,0
2022-08-22T04:36:42.010Z,0
2022-08-22T04:37:44.952Z,0
2022-08-22T04:38:48.141Z,0
2022-08-22T04:40:23.506Z,0
2022-08-22T04:41:32.197Z,0
2022-08-22T04:43:00.609Z,0
2022-08-22T04:44:41.444Z,0
2022-08-22T04:45:44.297Z,0
2022-08-22T04:46:59.278Z,0
2022-08-22T04:48:34.004Z,0
2022-08-22T04:49:37.161Z,0
2022-08-22T04:50:43.114Z,0
2022-08-22T04:52:20.324Z,0
2022-08-22T04:53:23.440Z,0
2022-08-22T04:54:26.309Z,0
2022-08-22T04:56:05.376Z,0
2022-08-22T04:57:10.520Z,0
2022-08-22T04:58:17.630Z,0
2022-08-22T04:59:57.576Z,0
2022-08-22T05:00:40.575Z,0
2022-08-22T05:01:44.060Z,0
2022-08-22T05:02:49.863Z,0
2022-08-22T05:04:26.134Z,0
2022-08-22T05:05:36.166Z,0
2022-08-22T05:06:39.307Z,0
2022-08-22T05:08:17.240Z,0
2022-08-22T05:09:27.160Z,0
2022-08-22T05:10:40.408Z,0
2022-08-22T05:12:15.062Z,0
2022-08-22T05:13:17.906Z,0
2022-08-22T05:14:21.219Z,0
2022-08-22T05:15:59.625Z,0
2022-08-22T05:17:02.481Z,0
2022-08-22T05:18:06.032Z,0
2022-08-22T05:19:56.881Z,0
2022-08-22T05:21:00.770Z,0
2022-08-22T05:22:03.699Z,0
2022-08-22T05:23:45.924Z,0
2022-08-22T05:24:50.715Z,0
2022-08-22T05:25:54.363Z,0
2022-08-22T05:27:29.206Z,0
2022-08-22T05:28:32.104Z,0
2022-08-22T05:29:35.053Z,0
2022-08-22T05:31:09.846Z,0
2022-08-22T05:32:12.739Z,0
2022-08-22T05:33:15.761Z,0
2022-08-22T05:34:51.399Z,0
2022-08-22T05:36:03.918Z,0
2022-08-22T05:37:08.130Z,0
2022-08-22T05:38:43.152Z,0
2022-08-22T05:39:48.242Z,0
2022-08-22T05:40:54.862Z,0
2022-08-22T05:42:29.582Z,0
2022-08-22T05:43:32.506Z,0
2022-08-22T05:44:35.675Z,0
2022-08-22T05:46:15.565Z,0
2022-08-22T05:47:18.337Z,0
2022-08-22T05:48:21.829Z,0
2022-08-22T05:49:57.611Z,0
2022-08-22T05:51:04.165Z,0
2022-08-22T05:52:07.231Z,0
2022-08-22T05:53:43.702Z,0
2022-08-22T05:54:56.956Z,0
2022-08-22T05:55:59.790Z,0
2022-08-22T05:57:36.201Z,0
2022-08-22T05:58:39.193Z,0
2022-08-22T05:59:42.669Z,0
2022-08-22T06:00:44.165Z,0
2022-08-22T06:01:47.586Z,0
2022-08-22T06:02:50.499Z,0.435
2022-08-22T06:04:25.155Z,0.435
2022-08-22T06:05:34.270Z,0.435
2022-08-22T06:06:37.135Z,0.435
2022-08-22T06:08:12.692Z,0.435
2022-08-22T06:09:15.455Z,0.435
2022-08-22T06:10:18.466Z,0.435
2022-08-22T06:12:15.053Z,0.435
2022-08-22T06:13:35.608Z,0.435
2022-08-22T06:14:51.860Z,0.585
2022-08-22T06:16:32.348Z,0.435
2022-08-22T06:17:35.300Z,0.435
2022-08-22T06:18:38.171Z,0.585
2022-08-22T06:20:28.718Z,0.585
2022-08-22T06:21:39.276Z,0.585
2022-08-22T06:22:48.223Z,0.585
2022-08-22T06:24:22.960Z,0.585
2022-08-22T06:25:25.837Z,0.585
2022-08-22T06:26:47.135Z,0.735
2022-08-22T06:28:23.334Z,0.735
2022-08-22T06:29:26.168Z,0.735
2022-08-22T06:30:29.109Z,0.735
2022-08-22T06:32:03.632Z,0.735
2022-08-22T06:33:29.699Z,0.735
2022-08-22T06:34:32.649Z,0.885
2022-08-22T06:36:08.849Z,0.885
2022-08-22T06:37:11.769Z,1.02
2022-08-22T06:38:14.747Z,1.02
2022-08-22T06:39:50.112Z,1.02
2022-08-22T06:40:53.314Z,1.17
2022-08-22T06:41:57.504Z,1.02
2022-08-22T06:43:32.540Z,1.17
2022-08-22T06:44:36.361Z,1.17
2022-08-22T06:45:39.309Z,1.17
2022-08-22T06:47:13.990Z,1.17
2022-08-22T06:48:29.903Z,1.17
2022-08-22T06:49:32.969Z,1.17
2022-08-22T06:51:07.399Z,1.17
2022-08-22T06:52:10.377Z,1.17
2022-08-22T06:53:13.177Z,1.32
2022-08-22T06:55:04.256Z,1.32
2022-08-22T06:56:07.069Z,1.32
2022-08-22T06:57:11.522Z,1.32
2022-08-22T06:58:51.250Z,1.32
2022-08-22T06:59:54.028Z,1.47
2022-08-22T07:00:40.243Z,1.47
2022-08-22T07:01:43.901Z,1.47
2022-08-22T07:02:46.985Z,1.755
2022-08-22T07:04:21.678Z,1.47
2022-08-22T07:05:24.602Z,1.47
2022-08-22T07:06:27.641Z,1.47
2022-08-22T07:08:02.439Z,1.47
2022-08-22T07:09:12.535Z,1.47
2022-08-22T07:10:15.828Z,1.47
2022-08-22T07:11:53.907Z,1.755
2022-08-22T07:12:56.940Z,1.755
2022-08-22T07:14:00.080Z,1.905
2022-08-22T07:15:34.859Z,1.755
2022-08-22T07:16:37.745Z,1.755
2022-08-22T07:17:46.120Z,1.905
2022-08-22T07:19:21.024Z,2.055
2022-08-22T07:20:23.868Z,2.19
2022-08-22T07:21:29.065Z,2.19
2022-08-22T07:23:05.500Z,2.19
2022-08-22T07:24:09.001Z,2.19
2022-08-22T07:25:12.112Z,2.34
2022-08-22T07:26:47.164Z,2.49
2022-08-22T07:27:54.598Z,2.34
2022-08-22T07:29:28.770Z,2.49
2022-08-22T07:31:06.558Z,2.79
2022-08-22T07:32:11.574Z,2.79
2022-08-22T07:33:43.971Z,2.79
2022-08-22T07:35:18.723Z,2.79
2022-08-22T07:36:23.116Z,2.925
2022-08-22T07:37:26.068Z,2.64
2022-08-22T07:39:01.231Z,2.49
2022-08-22T07:40:05.870Z,2.34
2022-08-22T07:41:08.915Z,2.34
2022-08-22T07:42:47.692Z,2.34
2022-08-22T07:43:50.602Z,2.19
2022-08-22T07:44:53.573Z,2.34
2022-08-22T07:46:28.576Z,2.19
2022-08-22T07:47:38.023Z,2.19
2022-08-22T07:49:21.234Z,2.19
2022-08-22T07:51:04.105Z,2.19
2022-08-22T07:52:06.903Z,2.34
2022-08-22T07:53:09.605Z,2.19
2022-08-22T07:54:49.645Z,2.19
2022-08-22T07:56:06.347Z,2.34
2022-08-22T07:57:09.040Z,2.19
2022-08-22T07:58:43.772Z,2.19
2022-08-22T07:59:46.845Z,2.34
2022-08-22T08:00:40.108Z,2.34
2022-08-22T08:01:43.561Z,2.19
2022-08-22T08:02:46.386Z,2.19
2022-08-22T08:04:21.065Z,2.34
2022-08-22T08:05:23.909Z,2.19
2022-08-22T08:06:26.965Z,2.34
2022-08-22T08:08:01.610Z,2.64
2022-08-22T08:09:04.533Z,3.51
2022-08-22T08:10:11.240Z,3.225
2022-08-22T08:11:48.263Z,3.66
2022-08-22T08:13:07.762Z,3.66
2022-08-22T08:14:13.645Z,3.075
2022-08-22T08:15:48.769Z,2.925
2022-08-22T08:16:51.604Z,3.075
2022-08-22T08:18:00.478Z,3.66
2022-08-22T08:19:35.388Z,3.225
2022-08-22T08:20:38.422Z,3.225
2022-08-22T08:21:41.233Z,3.225
2022-08-22T08:23:16.098Z,3.66
2022-08-22T08:24:27.334Z,3.66
2022-08-22T08:25:34.725Z,2.925
2022-08-22T08:27:09.611Z,3.075
2022-08-22T08:28:23.770Z,3.075
2022-08-22T08:29:28.251Z,3.81
2022-08-22T08:31:02.888Z,3.66
2022-08-22T08:32:11.407Z,3.225
2022-08-22T08:33:43.237Z,2.64
2022-08-22T08:35:22.633Z,2.64
2022-08-22T08:36:31.563Z,2.64
2022-08-22T08:37:35.371Z,3.96
2022-08-22T08:39:10.325Z,3.96
2022-08-22T08:40:13.982Z,4.095
2022-08-22T08:41:20.882Z,3.96
2022-08-22T08:42:57.563Z,3.96
2022-08-22T08:44:00.268Z,3.81
2022-08-22T08:45:03.355Z,3.81
2022-08-22T08:46:39.707Z,3.81
2022-08-22T08:47:45.559Z,3.96
2022-08-22T08:48:50.730Z,3.81
2022-08-22T08:50:29.468Z,3.81
2022-08-22T08:51:35.091Z,3.66
2022-08-22T08:52:41.465Z,3.66
2022-08-22T08:54:18.579Z,3.96
2022-08-22T08:55:41.296Z,3.66
2022-08-22T09:00:48.950Z,4.095
2022-08-22T09:01:56.822Z,4.095
2022-08-22T09:03:15.865Z,4.245
2022-08-22T09:04:56.622Z,4.245
2022-08-22T09:06:00.565Z,4.095
2022-08-22T09:07:16.103Z,4.095
2022-08-22T09:08:55.635Z,4.095
2022-08-22T09:10:06.062Z,3.96
2022-08-22T09:11:15.692Z,4.095
2022-08-22T09:13:23.511Z,4.095
2022-08-22T09:14:32.654Z,4.245
2022-08-22T09:16:05.209Z,3.96
2022-08-22T09:17:50.539Z,4.245
2022-08-22T09:18:55.337Z,4.245
2022-08-22T09:20:02.235Z,4.245
2022-08-22T09:22:00.124Z,4.395
2022-08-22T09:23:22.329Z,4.395
2022-08-22T09:24:28.922Z,4.695
2022-08-22T09:26:10.675Z,4.695
2022-08-22T09:27:22.198Z,4.695
2022-08-22T09:40:37.087Z,4.695
2022-08-22T09:42:20.321Z,4.245
2022-08-22T09:43:27.123Z,3.81
2022-08-22T09:44:39.407Z,4.245
2022-08-22T09:46:21.483Z,4.695
2022-08-22T09:47:31.395Z,3.81
2022-08-22T09:48:40.855Z,4.395
2022-08-22T09:50:24.686Z,4.245
2022-08-22T09:52:05.345Z,3.96
2022-08-22T09:53:19.008Z,4.245
2022-08-22T09:55:03.553Z,4.545
2022-08-22T09:56:31.707Z,4.545
2022-08-22T09:57:39.871Z,4.095
2022-08-22T09:59:21.169Z,5.28
2022-08-22T10:00:46.253Z,5.28
2022-08-22T10:01:58.925Z,4.245
2022-08-22T10:03:18.253Z,4.245
2022-08-22T10:04:59.029Z,5.28
2022-08-22T10:06:14.820Z,5.415
2022-08-22T10:07:29.092Z,4.095
2022-08-22T10:09:09.320Z,3.51
2022-08-22T10:10:21.463Z,3.075
2022-08-22T10:11:25.362Z,3.225
2022-08-22T10:13:10.255Z,4.095
2022-08-22T10:14:28.211Z,3.81
2022-08-22T10:15:37.441Z,3.81
2022-08-22T10:17:14.297Z,5.715
2022-08-22T10:18:27.545Z,4.545
2022-08-22T10:19:38.146Z,5.28
2022-08-22T10:21:18.912Z,3.96
2022-08-22T10:22:29.858Z,4.395
2022-08-22T10:23:40.685Z,3.96
2022-08-22T10:25:30.231Z,4.095
2022-08-22T10:26:50.386Z,4.095
2022-08-22T10:27:57.286Z,4.545
2022-08-22T10:29:38.067Z,4.545
2022-08-22T10:30:41.902Z,4.395
2022-08-22T10:32:10.720Z,4.395
2022-08-22T10:33:55.583Z,4.095
2022-08-22T10:35:00.175Z,4.395
2022-08-22T10:36:11.850Z,4.395
2022-08-22T10:37:57.911Z,4.695
2022-08-22T10:39:28.219Z,4.545
2022-08-22T10:40:37.855Z,4.245
2022-08-22T10:42:24.212Z,4.83
2022-08-22T10:43:40.787Z,5.28
2022-08-22T10:44:46.676Z,4.98
2022-08-22T10:46:42.156Z,5.28
2022-08-22T10:47:47.271Z,4.98
2022-08-22T10:48:52.225Z,4.98
2022-08-22T10:50:48.870Z,5.415
2022-08-22T10:51:53.697Z,5.415
2022-08-22T10:52:56.843Z,5.28
2022-08-22T10:54:51.362Z,4.83
2022-08-22T10:55:57.883Z,4.83
2022-08-22T10:57:06.819Z,5.415
2022-08-22T10:58:47.434Z,5.715
2022-08-22T10:59:53.666Z,3.225
2022-08-22T11:00:57.874Z,3.075
2022-08-22T11:02:10.222Z,3.225
2022-08-22T11:03:35.739Z,4.395
2022-08-22T11:05:16.177Z,3.51
2022-08-22T11:06:22.154Z,3.51
2022-08-22T11:07:27.488Z,4.095
2022-08-22T11:09:08.056Z,4.545
2022-08-22T11:10:14.828Z,4.395
2022-08-22T11:11:23.267Z,4.095
2022-08-22T11:13:04.682Z,4.695
2022-08-22T11:14:13.910Z,4.98
2022-08-22T11:15:40.729Z,5.865
2022-08-22T11:17:59.976Z,5.28
2022-08-22T11:19:27.171Z,4.83
2022-08-22T11:20:32.870Z,4.245
2022-08-22T11:22:15.678Z,5.28
2022-08-22T11:23:31.642Z,3.81
2022-08-22T11:25:26.888Z,3.81
2022-08-22T11:27:34.478Z,4.095
2022-08-22T11:28:45.943Z,4.245
2022-08-22T11:29:57.755Z,4.395
2022-08-22T11:32:11.848Z,4.095
2022-08-22T11:33:33.910Z,3.96
2022-08-22T11:34:50.632Z,3.81
2022-08-22T11:36:38.605Z,3.96
2022-08-22T11:38:10.984Z,3.96
2022-08-22T11:39:24.339Z,4.095
2022-08-22T11:41:04.270Z,3.96
2022-08-22T11:42:21.773Z,4.395
2022-08-22T11:43:38.458Z,4.395
2022-08-22T11:45:22.503Z,4.545
2022-08-22T11:46:31.453Z,4.245
2022-08-22T11:47:43.321Z,4.395
2022-08-22T11:49:18.920Z,4.395
2022-08-22T11:50:30.397Z,4.395
2022-08-22T11:51:55.174Z,4.695
2022-08-22T11:53:39.496Z,4.395
2022-08-22T11:54:49.039Z,4.545
2022-08-22T11:56:05.409Z,4.395
2022-08-22T11:57:50.059Z,4.545
2022-08-22T11:59:00.034Z,4.395
2022-08-22T12:00:47.466Z,4.395
2022-08-22T12:01:57.295Z,4.245
2022-08-22T12:03:04.681Z,4.095
2022-08-22T12:04:48.197Z,4.095
2022-08-22T12:05:55.650Z,4.395
2022-08-22T12:07:07.467Z,4.245
2022-08-22T12:08:51.493Z,4.245
2022-08-22T12:10:00.616Z,4.245
2022-08-22T12:11:07.980Z,4.395
2022-08-22T12:12:47.900Z,4.83
2022-08-22T12:14:15.585Z,5.565
2022-08-22T12:15:27.272Z,3.81
2022-08-22T12:17:44.896Z,3.81
2022-08-22T12:19:05.054Z,4.395
2022-08-22T12:20:45.354Z,4.83
2022-08-22T12:22:25.751Z,4.98
2022-08-22T12:23:56.088Z,4.545
2022-08-22T12:25:02.877Z,4.095
2022-08-22T12:26:40.879Z,3.96
2022-08-22T12:28:01.093Z,3.81
2022-08-22T12:29:04.965Z,4.395
2022-08-22T12:31:06.220Z,3.66
2022-08-22T12:32:10.389Z,3.66
2022-08-22T12:33:28.915Z,3.81
2022-08-22T12:35:19.994Z,3.96
2022-08-22T12:36:41.966Z,3.81
2022-08-22T12:38:26.574Z,3.81
2022-08-22T12:40:11.296Z,3.96
2022-08-22T12:41:35.387Z,3.96
2022-08-22T12:42:38.367Z,3.96
2022-08-22T12:44:28.383Z,4.095
2022-08-22T12:45:33.495Z,4.545
2022-08-22T12:46:53.052Z,4.395
2022-08-22T12:48:36.072Z,4.395
2022-08-22T12:49:40.574Z,4.395
2022-08-22T12:50:51.436Z,4.545
2022-08-22T12:52:34.208Z,5.28
2022-08-22T12:53:45.819Z,4.245
2022-08-22T12:54:48.896Z,4.095
2022-08-22T12:56:27.870Z,4.095
2022-08-22T12:57:53.983Z,3.96
2022-08-22T12:59:08.267Z,3.96
2022-08-22T13:00:47.834Z,3.96
2022-08-22T13:02:07.515Z,3.96
2022-08-22T13:03:15.070Z,3.96
2022-08-22T13:05:04.454Z,3.96
2022-08-22T13:06:26.505Z,3.96
2022-08-22T13:07:34.735Z,3.96
2022-08-22T13:09:28.464Z,3.81
2022-08-22T13:10:36.182Z,3.81
2022-08-22T13:11:51.772Z,3.96
2022-08-22T13:14:07.546Z,4.245
2022-08-22T13:15:24.885Z,4.095
2022-08-22T13:16:29.968Z,4.095
2022-08-22T13:18:59.781Z,3.96
2022-08-22T13:20:13.716Z,4.095
2022-08-22T13:21:20.913Z,4.095
2022-08-22T13:23:12.565Z,3.96
2022-08-22T13:24:38.834Z,3.96
2022-08-22T13:25:50.197Z,3.81
2022-08-22T13:28:05.340Z,3.81
2022-08-22T13:29:54.105Z,3.96
2022-08-22T13:31:02.233Z,3.81
2022-08-22T13:32:44.460Z,3.96
2022-08-22T13:33:49.090Z,3.81
2022-08-22T13:34:57.893Z,3.96
2022-08-22T13:36:57.836Z,3.81
2022-08-22T13:38:07.604Z,3.81
2022-08-22T13:39:19.698Z,3.81
2022-08-22T13:40:59.941Z,3.66
2022-08-22T13:42:07.689Z,3.51
2022-08-22T13:43:22.873Z,3.51
2022-08-22T13:44:59.483Z,3.51
2022-08-22T13:46:11.096Z,3.51
2022-08-22T13:47:45.506Z,3.51
2022-08-22T13:49:39.683Z,3.225
2022-08-22T13:51:05.136Z,3.225
2022-08-22T13:52:38.009Z,3.66
2022-08-22T13:54:45.892Z,3.225
2022-08-22T13:55:54.881Z,3.225
2022-08-22T13:57:07.549Z,3.225
2022-08-22T13:58:49.000Z,3.225
2022-08-22T14:01:15.882Z,3.075
2022-08-22T14:02:36.770Z,3.075
2022-08-22T14:03:40.448Z,3.075
2022-08-22T14:05:43.763Z,3.075
2022-08-22T14:07:07.118Z,3.075
2022-08-22T14:08:25.793Z,3.075
2022-08-22T14:10:14.919Z,3.075
2022-08-22T14:11:26.884Z,3.075
2022-08-22T14:12:56.022Z,3.075
2022-08-22T14:14:37.697Z,2.925
2022-08-22T14:15:51.667Z,3.075
2022-08-22T14:16:57.373Z,2.925
2022-08-22T14:18:51.301Z,2.925
2022-08-22T14:20:39.356Z,2.925
2022-08-22T14:21:52.560Z,2.925
2022-08-22T14:23:46.561Z,2.925
2022-08-22T14:25:07.546Z,2.925
2022-08-22T14:26:18.390Z,2.925
2022-08-22T14:28:17.822Z,2.925
2022-08-22T14:29:21.544Z,2.925
2022-08-22T14:30:30.097Z,2.925
2022-08-22T14:32:14.458Z,2.925
2022-08-22T14:33:21.065Z,2.925
2022-08-22T14:34:27.524Z,2.79
2022-08-22T14:36:22.852Z,2.79
2022-08-22T14:37:28.514Z,2.79
2022-08-22T14:38:58.935Z,2.79
2022-08-22T14:40:38.353Z,2.79
2022-08-22T14:42:16.628Z,2.79
2022-08-22T14:43:28.289Z,2.64
2022-08-22T14:45:12.496Z,2.79
2022-08-22T14:46:20.295Z,2.64
2022-08-22T14:48:46.580Z,2.64
2022-08-22T14:50:36.040Z,2.64
2022-08-22T14:51:39.578Z,2.64
2022-08-22T14:52:52.029Z,2.64
2022-08-22T14:54:42.534Z,2.64
2022-08-22T14:55:48.861Z,2.49
2022-08-22T14:56:58.241Z,2.49
2022-08-22T14:58:45.080Z,2.49
2022-08-22T14:59:50.055Z,2.49
2022-08-22T15:00:45.801Z,2.49
2022-08-22T15:01:58.979Z,2.49
2022-08-22T15:03:03.334Z,2.49
2022-08-22T15:04:52.821Z,2.34
2022-08-22T15:06:10.988Z,2.49
2022-08-22T15:07:17.826Z,2.34
2022-08-22T15:09:07.779Z,2.34
2022-08-22T15:10:17.729Z,2.49
2022-08-22T15:11:25.695Z,2.34
2022-08-22T15:13:05.904Z,2.34
2022-08-22T15:14:12.514Z,2.34
2022-08-22T15:15:20.973Z,2.34
2022-08-22T15:17:23.123Z,2.34
2022-08-22T15:18:28.887Z,2.19
2022-08-22T15:19:41.048Z,2.19
2022-08-22T15:21:30.431Z,2.19
2022-08-22T15:22:38.805Z,2.19
2022-08-22T15:23:56.790Z,2.19
2022-08-22T15:25:36.859Z,2.055
2022-08-22T15:26:48.595Z,2.055
2022-08-22T15:27:54.830Z,2.055
2022-08-22T15:29:57.996Z,1.905
2022-08-22T15:31:15.166Z,1.905
2022-08-22T15:32:19.783Z,1.905
2022-08-22T15:34:01.106Z,1.905
2022-08-22T15:35:11.434Z,1.905
2022-08-22T15:36:16.382Z,1.755
2022-08-22T15:37:54.874Z,1.755
2022-08-22T15:39:06.076Z,1.755
2022-08-22T15:40:19.940Z,1.47
2022-08-22T15:42:05.247Z,1.47
2022-08-22T15:43:11.878Z,1.47
2022-08-22T15:44:33.030Z,1.47
2022-08-22T15:46:23.572Z,1.47
2022-08-22T15:47:46.049Z,1.47
2022-08-22T15:48:54.836Z,1.32
2022-08-22T15:50:38.085Z,1.32
2022-08-22T15:51:45.051Z,1.32
2022-08-22T15:53:10.236Z,1.32
2022-08-22T15:55:03.979Z,1.17
2022-08-22T15:56:10.972Z,1.17
2022-08-22T15:57:18.061Z,1.32
2022-08-22T15:59:00.632Z,1.32
2022-08-22T16:00:50.712Z,1.32
2022-08-22T16:02:01.288Z,1.32
2022-08-22T16:03:09.455Z,1.32
2022-08-22T16:04:44.555Z,1.32
2022-08-22T16:06:16.285Z,1.17
2022-08-22T16:07:29.292Z,1.32
2022-08-22T16:08:35.271Z,1.47
2022-08-22T16:10:11.816Z,1.47
2022-08-22T16:11:16.578Z,1.47
2022-08-22T16:12:19.334Z,1.905
2022-08-22T16:14:00.339Z,1.755
2022-08-22T16:15:03.291Z,1.47
2022-08-22T16:16:11.112Z,1.47
2022-08-22T16:17:46.747Z,1.32
2022-08-22T16:18:56.459Z,1.32
2022-08-22T16:19:59.501Z,1.47
2022-08-22T16:21:34.657Z,1.47
2022-08-22T16:22:37.846Z,1.47
2022-08-22T16:23:40.939Z,1.32
2022-08-22T16:25:16.773Z,1.47
2022-08-22T16:26:21.563Z,1.47
2022-08-22T16:27:24.499Z,1.755
2022-08-22T16:29:29.607Z,1.755
2022-08-22T16:30:32.753Z,1.905
2022-08-22T16:31:35.717Z,2.19
2022-08-22T16:33:17.892Z,2.19
2022-08-22T16:34:21.610Z,2.055
2022-08-22T16:35:24.752Z,2.055
2022-08-22T16:36:59.602Z,1.755
2022-08-22T16:38:04.375Z,1.47
2022-08-22T16:39:07.384Z,1.905
2022-08-22T16:40:45.888Z,1.47
2022-08-22T16:41:50.954Z,1.47
2022-08-22T16:42:55.148Z,1.47
2022-08-22T16:44:33.659Z,1.755
2022-08-22T16:45:36.622Z,1.47
2022-08-22T16:46:50.117Z,1.755
2022-08-22T16:48:27.027Z,1.47
2022-08-22T16:49:30.029Z,1.47
2022-08-22T16:50:33.073Z,1.47
2022-08-22T16:52:08.352Z,1.47
2022-08-22T16:53:11.471Z,1.32
2022-08-22T16:54:14.645Z,1.32
2022-08-22T16:55:49.691Z,1.32
2022-08-22T16:56:52.763Z,1.32
2022-08-22T16:58:13.084Z,1.32
2022-08-22T17:00:45.172Z,1.17
2022-08-22T17:01:52.279Z,1.02
2022-08-22T17:02:55.311Z,1.02
2022-08-22T17:04:30.378Z,1.02
2022-08-22T17:05:36.129Z,1.02
2022-08-22T17:06:39.194Z,1.02
2022-08-22T17:08:14.340Z,1.02
2022-08-22T17:09:17.310Z,1.02
2022-08-22T17:10:27.072Z,0.885
2022-08-22T17:12:01.975Z,0.885
2022-08-22T17:13:04.911Z,0.885
2022-08-22T17:14:07.945Z,0.885
2022-08-22T17:15:43.182Z,0.885
2022-08-22T17:16:46.054Z,0.885
2022-08-22T17:17:50.200Z,0.735
2022-08-22T17:19:27.458Z,0.885
2022-08-22T17:20:30.611Z,0.735
2022-08-22T17:21:37.568Z,0.585
2022-08-22T17:23:15.164Z,0.585
2022-08-22T17:24:39.460Z,0.585
2022-08-22T17:25:42.477Z,0.585
2022-08-22T17:27:23.412Z,0.585
2022-08-22T17:28:29.211Z,0.585
2022-08-22T17:29:35.459Z,0.585
2022-08-22T17:31:10.545Z,0.585
2022-08-22T17:32:13.610Z,0.435
2022-08-22T17:33:33.742Z,0.585
2022-08-22T17:35:10.321Z,0.435
2022-08-22T17:36:32.492Z,0.435
2022-08-22T17:37:35.958Z,0.435
2022-08-22T17:39:13.468Z,0.435
2022-08-22T17:40:23.058Z,0.435
2022-08-22T17:41:27.731Z,0.435
2022-08-22T17:43:02.571Z,0.435
2022-08-22T17:44:17.849Z,0.435
2022-08-22T17:45:25.757Z,0.435
2022-08-22T17:47:02.670Z,0.435
2022-08-22T17:48:05.939Z,0
2022-08-22T17:49:08.994Z,0.435
2022-08-22T17:50:44.187Z,0.435
2022-08-22T17:51:51.211Z,0.435
2022-08-22T17:52:54.233Z,0
2022-08-22T17:54:35.618Z,0
2022-08-22T17:55:38.812Z,0
2022-08-22T17:56:42.435Z,0
2022-08-22T17:58:49.540Z,0
2022-08-22T17:59:52.580Z,0
2022-08-22T18:00:40.426Z,0.435
2022-08-22T18:01:44.141Z,0
2022-08-22T18:02:47.338Z,0
2022-08-22T18:04:22.360Z,0
2022-08-22T18:05:25.479Z,0
2022-08-22T18:06:28.237Z,0
2022-08-22T18:08:36.921Z,0
2022-08-22T18:09:42.076Z,0
2022-08-22T18:10:45.705Z,0
2022-08-22T18:12:20.339Z,0
2022-08-22T18:13:29.500Z,0
2022-08-22T18:14:33.652Z,0
2022-08-22T18:16:08.186Z,0
2022-08-22T18:17:11.190Z,0
2022-08-22T18:18:14.070Z,0
2022-08-22T18:19:50.619Z,0
2022-08-22T18:20:53.751Z,0
2022-08-22T18:21:56.768Z,0
2022-08-22T18:24:00.392Z,0